sensor_id;sensor_type;location;lat;lon;timestamp;temperature;humidity
10889;DHT22;5497;51.388;6.780;2023-04-06T00:00:22;1.80;91.50
10889;DHT22;5497;51.388;6.780;2023-04-06T00:02:49;1.80;91.50
10889;DHT22;5497;51.388;6.780;2023-04-06T00:05:19;1.80;91.70
10889;DHT22;5497;51.388;6.780;2023-04-06T00:07:46;1.70;91.80
10889;DHT22;5497;51.388;6.780;2023-04-06T00:10:13;1.70;92.00
10889;DHT22;5497;51.388;6.780;2023-04-06T00:12:40;1.70;92.20
10889;DHT22;5497;51.388;6.780;2023-04-06T00:15:09;1.60;92.20
10889;DHT22;5497;51.388;6.780;2023-04-06T00:17:36;1.60;92.40
10889;DHT22;5497;51.388;6.780;2023-04-06T00:20:03;1.70;92.80
10889;DHT22;5497;51.388;6.780;2023-04-06T00:22:32;1.70;92.80
10889;DHT22;5497;51.388;6.780;2023-04-06T00:24:58;1.60;92.90
10889;DHT22;5497;51.388;6.780;2023-04-06T00:27:26;1.60;92.90
10889;DHT22;5497;51.388;6.780;2023-04-06T00:29:52;1.60;92.90
10889;DHT22;5497;51.388;6.780;2023-04-06T00:32:19;1.60;93.20
10889;DHT22;5497;51.388;6.780;2023-04-06T00:34:46;1.50;93.30
10889;DHT22;5497;51.388;6.780;2023-04-06T00:37:13;1.50;93.40
10889;DHT22;5497;51.388;6.780;2023-04-06T00:39:42;1.50;93.70
10889;DHT22;5497;51.388;6.780;2023-04-06T00:42:11;1.60;93.80
10889;DHT22;5497;51.388;6.780;2023-04-06T00:44:39;1.60;94.00
10889;DHT22;5497;51.388;6.780;2023-04-06T00:47:06;1.50;94.00
10889;DHT22;5497;51.388;6.780;2023-04-06T00:49:33;1.50;94.10
10889;DHT22;5497;51.388;6.780;2023-04-06T00:52:00;1.50;94.30
10889;DHT22;5497;51.388;6.780;2023-04-06T00:54:28;1.50;94.50
10889;DHT22;5497;51.388;6.780;2023-04-06T00:56:57;1.60;94.60
10889;DHT22;5497;51.388;6.780;2023-04-06T00:59:27;1.50;94.60
10889;DHT22;5497;51.388;6.780;2023-04-06T01:01:55;1.40;94.70
10889;DHT22;5497;51.388;6.780;2023-04-06T01:04:34;1.40;95.10
10889;DHT22;5497;51.388;6.780;2023-04-06T01:07:03;1.30;94.80
10889;DHT22;5497;51.388;6.780;2023-04-06T01:09:37;1.30;94.90
10889;DHT22;5497;51.388;6.780;2023-04-06T01:12:14;1.20;95.00
10889;DHT22;5497;51.388;6.780;2023-04-06T01:14:41;1.20;95.30
10889;DHT22;5497;51.388;6.780;2023-04-06T01:17:08;1.20;95.60
10889;DHT22;5497;51.388;6.780;2023-04-06T01:19:36;1.20;95.70
10889;DHT22;5497;51.388;6.780;2023-04-06T01:22:03;1.20;95.90
10889;DHT22;5497;51.388;6.780;2023-04-06T01:24:31;1.20;96.00
10889;DHT22;5497;51.388;6.780;2023-04-06T01:26:58;1.10;96.10
10889;DHT22;5497;51.388;6.780;2023-04-06T01:29:37;1.10;96.20
10889;DHT22;5497;51.388;6.780;2023-04-06T01:32:08;1.10;96.30
10889;DHT22;5497;51.388;6.780;2023-04-06T01:34:44;1.10;96.50
10889;DHT22;5497;51.388;6.780;2023-04-06T01:37:11;1.00;96.50
10889;DHT22;5497;51.388;6.780;2023-04-06T01:39:39;1.00;96.50
10889;DHT22;5497;51.388;6.780;2023-04-06T01:42:07;0.90;96.60
10889;DHT22;5497;51.388;6.780;2023-04-06T01:44:37;0.90;96.90
10889;DHT22;5497;51.388;6.780;2023-04-06T01:47:09;0.80;97.10
10889;DHT22;5497;51.388;6.780;2023-04-06T01:49:36;0.80;97.30
10889;DHT22;5497;51.388;6.780;2023-04-06T01:52:03;0.80;97.50
10889;DHT22;5497;51.388;6.780;2023-04-06T01:54:30;0.80;97.80
10889;DHT22;5497;51.388;6.780;2023-04-06T01:57:23;0.80;97.90
10889;DHT22;5497;51.388;6.780;2023-04-06T01:59:58;0.80;98.10
10889;DHT22;5497;51.388;6.780;2023-04-06T02:02:43;0.80;98.30
10889;DHT22;5497;51.388;6.780;2023-04-06T02:05:19;0.90;98.60
10889;DHT22;5497;51.388;6.780;2023-04-06T02:07:46;0.90;99.10
10889;DHT22;5497;51.388;6.780;2023-04-06T02:10:18;0.90;99.00
10889;DHT22;5497;51.388;6.780;2023-04-06T02:12:46;0.90;99.20
10889;DHT22;5497;51.388;6.780;2023-04-06T02:15:22;0.90;99.30
10889;DHT22;5497;51.388;6.780;2023-04-06T02:17:48;0.90;99.40
10889;DHT22;5497;51.388;6.780;2023-04-06T02:20:15;0.90;99.50
10889;DHT22;5497;51.388;6.780;2023-04-06T02:22:42;0.90;99.70
10889;DHT22;5497;51.388;6.780;2023-04-06T02:25:09;0.80;99.90
10889;DHT22;5497;51.388;6.780;2023-04-06T02:27:36;0.80;99.90
10889;DHT22;5497;51.388;6.780;2023-04-06T02:30:04;0.80;99.90
10889;DHT22;5497;51.388;6.780;2023-04-06T02:32:31;0.80;99.90
10889;DHT22;5497;51.388;6.780;2023-04-06T02:34:58;0.80;99.90
10889;DHT22;5497;51.388;6.780;2023-04-06T02:37:25;0.80;99.90
10889;DHT22;5497;51.388;6.780;2023-04-06T02:39:52;0.90;99.90
10889;DHT22;5497;51.388;6.780;2023-04-06T02:42:19;0.90;99.90
10889;DHT22;5497;51.388;6.780;2023-04-06T02:44:48;0.90;99.90
10889;DHT22;5497;51.388;6.780;2023-04-06T02:47:17;0.90;99.90
10889;DHT22;5497;51.388;6.780;2023-04-06T02:49:47;0.90;99.90
10889;DHT22;5497;51.388;6.780;2023-04-06T02:52:16;0.90;99.90
10889;DHT22;5497;51.388;6.780;2023-04-06T02:54:43;0.90;99.90
10889;DHT22;5497;51.388;6.780;2023-04-06T02:57:11;0.90;99.90
10889;DHT22;5497;51.388;6.780;2023-04-06T02:59:41;0.80;99.90
10889;DHT22;5497;51.388;6.780;2023-04-06T03:02:18;0.80;99.90
10889;DHT22;5497;51.388;6.780;2023-04-06T03:04:45;0.80;99.90
10889;DHT22;5497;51.388;6.780;2023-04-06T03:07:21;0.70;99.90
10889;DHT22;5497;51.388;6.780;2023-04-06T03:09:48;0.70;99.90
10889;DHT22;5497;51.388;6.780;2023-04-06T03:12:16;0.70;99.90
10889;DHT22;5497;51.388;6.780;2023-04-06T03:15:10;0.70;99.90
10889;DHT22;5497;51.388;6.780;2023-04-06T03:17:41;0.60;99.90
10889;DHT22;5497;51.388;6.780;2023-04-06T03:20:14;0.60;99.90
10889;DHT22;5497;51.388;6.780;2023-04-06T03:22:41;0.50;99.90
10889;DHT22;5497;51.388;6.780;2023-04-06T03:25:11;0.50;99.90
10889;DHT22;5497;51.388;6.780;2023-04-06T03:27:40;0.50;99.90
10889;DHT22;5497;51.388;6.780;2023-04-06T03:30:11;0.60;99.90
10889;DHT22;5497;51.388;6.780;2023-04-06T03:32:38;0.50;99.90
10889;DHT22;5497;51.388;6.780;2023-04-06T03:35:06;0.50;99.90
10889;DHT22;5497;51.388;6.780;2023-04-06T03:37:33;0.50;99.90
10889;DHT22;5497;51.388;6.780;2023-04-06T03:40:02;0.50;99.90
10889;DHT22;5497;51.388;6.780;2023-04-06T03:42:29;0.50;99.90
10889;DHT22;5497;51.388;6.780;2023-04-06T03:45:01;0.60;99.90
10889;DHT22;5497;51.388;6.780;2023-04-06T03:47:28;0.60;99.90
10889;DHT22;5497;51.388;6.780;2023-04-06T03:49:59;0.60;99.90
10889;DHT22;5497;51.388;6.780;2023-04-06T03:52:28;0.60;99.90
10889;DHT22;5497;51.388;6.780;2023-04-06T03:54:54;0.60;99.90
10889;DHT22;5497;51.388;6.780;2023-04-06T03:57:21;0.50;99.90
10889;DHT22;5497;51.388;6.780;2023-04-06T03:59:48;0.50;99.90
10889;DHT22;5497;51.388;6.780;2023-04-06T04:02:14;0.50;99.90
10889;DHT22;5497;51.388;6.780;2023-04-06T04:04:41;0.50;99.90
10889;DHT22;5497;51.388;6.780;2023-04-06T04:07:08;0.50;99.90
10889;DHT22;5497;51.388;6.780;2023-04-06T04:09:36;0.50;99.90
10889;DHT22;5497;51.388;6.780;2023-04-06T04:12:03;0.40;99.90
10889;DHT22;5497;51.388;6.780;2023-04-06T04:14:31;0.40;99.90
10889;DHT22;5497;51.388;6.780;2023-04-06T04:16:58;0.40;99.90
10889;DHT22;5497;51.388;6.780;2023-04-06T04:19:24;0.40;99.90
10889;DHT22;5497;51.388;6.780;2023-04-06T04:21:51;0.40;99.90
10889;DHT22;5497;51.388;6.780;2023-04-06T04:24:25;0.40;99.90
10889;DHT22;5497;51.388;6.780;2023-04-06T04:26:53;0.40;99.90
10889;DHT22;5497;51.388;6.780;2023-04-06T04:29:21;0.40;99.90
10889;DHT22;5497;51.388;6.780;2023-04-06T04:31:49;0.50;99.90
10889;DHT22;5497;51.388;6.780;2023-04-06T04:34:16;0.40;99.90
10889;DHT22;5497;51.388;6.780;2023-04-06T04:36:45;0.50;99.90
10889;DHT22;5497;51.388;6.780;2023-04-06T04:39:19;1.30;99.90
10889;DHT22;5497;51.388;6.780;2023-04-06T04:41:56;0.50;99.90
10889;DHT22;5497;51.388;6.780;2023-04-06T04:44:23;0.50;99.90
10889;DHT22;5497;51.388;6.780;2023-04-06T04:46:50;0.50;99.90
10889;DHT22;5497;51.388;6.780;2023-04-06T04:49:19;0.50;99.90
10889;DHT22;5497;51.388;6.780;2023-04-06T04:51:48;0.60;99.90
10889;DHT22;5497;51.388;6.780;2023-04-06T04:54:23;0.60;99.90
10889;DHT22;5497;51.388;6.780;2023-04-06T04:56:50;0.90;99.90
10889;DHT22;5497;51.388;6.780;2023-04-06T04:59:36;0.60;99.90
10889;DHT22;5497;51.388;6.780;2023-04-06T05:02:11;0.70;99.90
10889;DHT22;5497;51.388;6.780;2023-04-06T05:04:51;0.70;99.90
10889;DHT22;5497;51.388;6.780;2023-04-06T05:07:22;0.80;99.90
10889;DHT22;5497;51.388;6.780;2023-04-06T05:09:50;0.90;99.90
10889;DHT22;5497;51.388;6.780;2023-04-06T05:12:18;0.90;99.90
10889;DHT22;5497;51.388;6.780;2023-04-06T05:14:55;1.00;99.90
10889;DHT22;5497;51.388;6.780;2023-04-06T05:17:23;1.00;99.90
10889;DHT22;5497;51.388;6.780;2023-04-06T05:19:50;1.10;99.90
10889;DHT22;5497;51.388;6.780;2023-04-06T05:22:22;1.20;99.90
10889;DHT22;5497;51.388;6.780;2023-04-06T05:24:56;1.40;99.90
10889;DHT22;5497;51.388;6.780;2023-04-06T05:27:24;1.40;99.90
10889;DHT22;5497;51.388;6.780;2023-04-06T05:29:56;1.60;99.90
10889;DHT22;5497;51.388;6.780;2023-04-06T05:32:25;1.70;99.90
10889;DHT22;5497;51.388;6.780;2023-04-06T05:34:54;1.80;99.90
10889;DHT22;5497;51.388;6.780;2023-04-06T05:37:21;2.00;99.90
10889;DHT22;5497;51.388;6.780;2023-04-06T05:39:48;2.10;99.90
10889;DHT22;5497;51.388;6.780;2023-04-06T05:42:15;2.30;99.90
10889;DHT22;5497;51.388;6.780;2023-04-06T05:44:53;2.80;99.90
10889;DHT22;5497;51.388;6.780;2023-04-06T05:47:21;3.60;99.90
10889;DHT22;5497;51.388;6.780;2023-04-06T05:49:55;4.30;99.90
10889;DHT22;5497;51.388;6.780;2023-04-06T05:52:30;5.10;99.90
10889;DHT22;5497;51.388;6.780;2023-04-06T05:54:58;5.90;99.90
10889;DHT22;5497;51.388;6.780;2023-04-06T05:57:25;6.60;99.90
10889;DHT22;5497;51.388;6.780;2023-04-06T05:59:53;7.40;99.90
10889;DHT22;5497;51.388;6.780;2023-04-06T06:02:23;8.10;99.90
10889;DHT22;5497;51.388;6.780;2023-04-06T06:04:51;8.90;99.90
10889;DHT22;5497;51.388;6.780;2023-04-06T06:07:19;9.50;99.90
10889;DHT22;5497;51.388;6.780;2023-04-06T06:09:57;10.10;99.90
10889;DHT22;5497;51.388;6.780;2023-04-06T06:12:29;10.50;99.90
10889;DHT22;5497;51.388;6.780;2023-04-06T06:14:57;11.10;99.90
10889;DHT22;5497;51.388;6.780;2023-04-06T06:17:27;11.60;99.90
10889;DHT22;5497;51.388;6.780;2023-04-06T06:19:54;12.20;99.90
10889;DHT22;5497;51.388;6.780;2023-04-06T06:22:21;12.40;99.90
10889;DHT22;5497;51.388;6.780;2023-04-06T06:24:49;12.70;99.90
10889;DHT22;5497;51.388;6.780;2023-04-06T06:27:18;13.10;99.90
10889;DHT22;5497;51.388;6.780;2023-04-06T06:29:46;13.60;99.90
10889;DHT22;5497;51.388;6.780;2023-04-06T06:32:13;14.10;98.30
10889;DHT22;5497;51.388;6.780;2023-04-06T06:34:42;14.60;97.10
10889;DHT22;5497;51.388;6.780;2023-04-06T06:37:09;15.10;96.80
10889;DHT22;5497;51.388;6.780;2023-04-06T06:39:38;15.50;95.80
10889;DHT22;5497;51.388;6.780;2023-04-06T06:42:05;16.10;94.00
10889;DHT22;5497;51.388;6.780;2023-04-06T06:44:58;16.70;93.70
10889;DHT22;5497;51.388;6.780;2023-04-06T06:47:25;17.30;93.60
10889;DHT22;5497;51.388;6.780;2023-04-06T06:49:53;17.60;90.50
10889;DHT22;5497;51.388;6.780;2023-04-06T06:52:20;17.80;90.00
10889;DHT22;5497;51.388;6.780;2023-04-06T06:54:48;18.10;87.80
10889;DHT22;5497;51.388;6.780;2023-04-06T06:57:16;18.40;85.70
10889;DHT22;5497;51.388;6.780;2023-04-06T06:59:42;18.70;85.80
10889;DHT22;5497;51.388;6.780;2023-04-06T07:02:09;18.80;85.50
10889;DHT22;5497;51.388;6.780;2023-04-06T07:04:36;19.00;85.00
10889;DHT22;5497;51.388;6.780;2023-04-06T07:07:05;19.40;83.60
10889;DHT22;5497;51.388;6.780;2023-04-06T07:09:32;19.70;81.70
10889;DHT22;5497;51.388;6.780;2023-04-06T07:11:59;20.00;81.00
10889;DHT22;5497;51.388;6.780;2023-04-06T07:14:31;20.40;79.00
10889;DHT22;5497;51.388;6.780;2023-04-06T07:16:58;20.60;80.00
10889;DHT22;5497;51.388;6.780;2023-04-06T07:19:25;20.90;78.80
10889;DHT22;5497;51.388;6.780;2023-04-06T07:21:52;21.30;78.40
10889;DHT22;5497;51.388;6.780;2023-04-06T07:24:20;21.70;78.70
10889;DHT22;5497;51.388;6.780;2023-04-06T07:26:46;22.20;78.20
10889;DHT22;5497;51.388;6.780;2023-04-06T07:29:13;22.50;74.80
10889;DHT22;5497;51.388;6.780;2023-04-06T07:34:34;22.80;73.40
10889;DHT22;5497;51.388;6.780;2023-04-06T07:37:01;23.00;73.10
10889;DHT22;5497;51.388;6.780;2023-04-06T07:39:30;21.90;69.70
10889;DHT22;5497;51.388;6.780;2023-04-06T07:41:57;20.50;68.40
10889;DHT22;5497;51.388;6.780;2023-04-06T07:44:24;19.30;68.60
10889;DHT22;5497;51.388;6.780;2023-04-06T07:46:51;18.70;69.70
10889;DHT22;5497;51.388;6.780;2023-04-06T07:49:22;19.10;72.00
10889;DHT22;5497;51.388;6.780;2023-04-06T07:51:49;19.70;71.70
10889;DHT22;5497;51.388;6.780;2023-04-06T07:54:16;20.10;72.30
10889;DHT22;5497;51.388;6.780;2023-04-06T07:56:46;20.70;71.60
10889;DHT22;5497;51.388;6.780;2023-04-06T07:59:13;21.30;72.00
10889;DHT22;5497;51.388;6.780;2023-04-06T08:01:40;21.70;69.50
10889;DHT22;5497;51.388;6.780;2023-04-06T08:04:07;22.00;69.60
10889;DHT22;5497;51.388;6.780;2023-04-06T08:06:34;22.10;68.30
10889;DHT22;5497;51.388;6.780;2023-04-06T08:09:02;22.20;68.00
10889;DHT22;5497;51.388;6.780;2023-04-06T08:11:29;22.30;66.40
10889;DHT22;5497;51.388;6.780;2023-04-06T08:13:57;22.50;68.60
10889;DHT22;5497;51.388;6.780;2023-04-06T08:16:24;22.40;66.10
10889;DHT22;5497;51.388;6.780;2023-04-06T08:18:51;22.20;65.50
10889;DHT22;5497;51.388;6.780;2023-04-06T08:21:18;22.00;64.30
10889;DHT22;5497;51.388;6.780;2023-04-06T08:23:45;21.60;63.70
10889;DHT22;5497;51.388;6.780;2023-04-06T08:26:12;21.30;65.30
10889;DHT22;5497;51.388;6.780;2023-04-06T08:28:39;20.90;65.30
10889;DHT22;5497;51.388;6.780;2023-04-06T08:31:08;20.70;65.00
10889;DHT22;5497;51.388;6.780;2023-04-06T08:33:35;20.50;65.00
10889;DHT22;5497;51.388;6.780;2023-04-06T08:36:08;20.40;64.30
10889;DHT22;5497;51.388;6.780;2023-04-06T08:38:35;20.20;64.00
10889;DHT22;5497;51.388;6.780;2023-04-06T08:41:06;19.80;64.50
10889;DHT22;5497;51.388;6.780;2023-04-06T08:43:33;19.50;64.50
10889;DHT22;5497;51.388;6.780;2023-04-06T08:46:02;19.10;64.30
10889;DHT22;5497;51.388;6.780;2023-04-06T08:48:31;19.00;65.70
10889;DHT22;5497;51.388;6.780;2023-04-06T08:50:58;18.80;66.30
10889;DHT22;5497;51.388;6.780;2023-04-06T08:53:26;18.50;66.60
10889;DHT22;5497;51.388;6.780;2023-04-06T08:55:52;18.30;66.60
10889;DHT22;5497;51.388;6.780;2023-04-06T08:58:19;18.30;65.90
10889;DHT22;5497;51.388;6.780;2023-04-06T09:00:47;18.30;66.70
10889;DHT22;5497;51.388;6.780;2023-04-06T09:03:16;18.40;66.70
10889;DHT22;5497;51.388;6.780;2023-04-06T09:05:44;18.60;68.70
10889;DHT22;5497;51.388;6.780;2023-04-06T09:08:12;18.80;67.30
10889;DHT22;5497;51.388;6.780;2023-04-06T09:10:40;18.80;66.40
10889;DHT22;5497;51.388;6.780;2023-04-06T09:13:07;18.70;65.20
10889;DHT22;5497;51.388;6.780;2023-04-06T09:15:34;18.50;65.90
10889;DHT22;5497;51.388;6.780;2023-04-06T09:18:01;18.40;66.00
10889;DHT22;5497;51.388;6.780;2023-04-06T09:20:28;18.30;65.40
10889;DHT22;5497;51.388;6.780;2023-04-06T09:22:56;18.20;66.20
10889;DHT22;5497;51.388;6.780;2023-04-06T09:25:23;18.10;65.40
10889;DHT22;5497;51.388;6.780;2023-04-06T09:27:58;18.10;65.20
10889;DHT22;5497;51.388;6.780;2023-04-06T09:30:25;17.40;65.30
10889;DHT22;5497;51.388;6.780;2023-04-06T09:32:53;17.10;65.50
10889;DHT22;5497;51.388;6.780;2023-04-06T09:35:20;17.00;65.70
10889;DHT22;5497;51.388;6.780;2023-04-06T09:37:48;17.00;65.70
10889;DHT22;5497;51.388;6.780;2023-04-06T09:40:17;16.90;66.10
10889;DHT22;5497;51.388;6.780;2023-04-06T09:42:45;16.80;65.80
10889;DHT22;5497;51.388;6.780;2023-04-06T09:45:13;16.80;66.30
10889;DHT22;5497;51.388;6.780;2023-04-06T09:47:42;16.90;66.00
10889;DHT22;5497;51.388;6.780;2023-04-06T09:50:10;16.90;66.40
10889;DHT22;5497;51.388;6.780;2023-04-06T09:52:38;17.00;66.20
10889;DHT22;5497;51.388;6.780;2023-04-06T09:55:07;17.00;66.30
10889;DHT22;5497;51.388;6.780;2023-04-06T09:57:37;17.20;66.40
10889;DHT22;5497;51.388;6.780;2023-04-06T10:00:09;17.30;65.80
10889;DHT22;5497;51.388;6.780;2023-04-06T10:02:39;17.20;66.20
10889;DHT22;5497;51.388;6.780;2023-04-06T10:05:08;17.30;66.60
10889;DHT22;5497;51.388;6.780;2023-04-06T10:07:36;17.30;66.60
10889;DHT22;5497;51.388;6.780;2023-04-06T10:10:03;17.40;66.70
10889;DHT22;5497;51.388;6.780;2023-04-06T10:12:34;17.50;66.50
10889;DHT22;5497;51.388;6.780;2023-04-06T10:15:02;16.70;66.00
10889;DHT22;5497;51.388;6.780;2023-04-06T10:17:30;17.60;67.20
10889;DHT22;5497;51.388;6.780;2023-04-06T10:19:59;17.70;67.50
10889;DHT22;5497;51.388;6.780;2023-04-06T10:22:29;17.90;67.50
10889;DHT22;5497;51.388;6.780;2023-04-06T10:24:59;17.80;67.30
10889;DHT22;5497;51.388;6.780;2023-04-06T10:27:29;17.60;66.90
10889;DHT22;5497;51.388;6.780;2023-04-06T10:30:02;17.60;67.90
10889;DHT22;5497;51.388;6.780;2023-04-06T10:32:35;17.70;68.70
10889;DHT22;5497;51.388;6.780;2023-04-06T10:35:06;17.80;68.60
10889;DHT22;5497;51.388;6.780;2023-04-06T10:37:45;17.80;68.50
10889;DHT22;5497;51.388;6.780;2023-04-06T10:40:17;17.80;68.00
10889;DHT22;5497;51.388;6.780;2023-04-06T10:42:46;17.70;68.40
10889;DHT22;5497;51.388;6.780;2023-04-06T10:45:21;17.60;68.60
10889;DHT22;5497;51.388;6.780;2023-04-06T10:47:52;17.20;68.40
10889;DHT22;5497;51.388;6.780;2023-04-06T10:50:25;17.70;69.20
10889;DHT22;5497;51.388;6.780;2023-04-06T10:52:58;17.80;69.20
10889;DHT22;5497;51.388;6.780;2023-04-06T10:55:26;18.00;69.30
10889;DHT22;5497;51.388;6.780;2023-04-06T10:57:53;18.10;69.00
10889;DHT22;5497;51.388;6.780;2023-04-06T11:00:22;18.10;68.90
10889;DHT22;5497;51.388;6.780;2023-04-06T11:02:49;18.10;69.20
10889;DHT22;5497;51.388;6.780;2023-04-06T11:05:17;18.10;70.10
10889;DHT22;5497;51.388;6.780;2023-04-06T11:07:44;18.10;69.70
10889;DHT22;5497;51.388;6.780;2023-04-06T11:10:10;18.20;69.70
10889;DHT22;5497;51.388;6.780;2023-04-06T11:12:37;18.10;69.60
10889;DHT22;5497;51.388;6.780;2023-04-06T11:15:04;18.10;69.90
10889;DHT22;5497;51.388;6.780;2023-04-06T11:17:36;18.20;70.10
10889;DHT22;5497;51.388;6.780;2023-04-06T11:20:03;18.30;70.30
10889;DHT22;5497;51.388;6.780;2023-04-06T11:22:31;18.30;70.30
10889;DHT22;5497;51.388;6.780;2023-04-06T11:25:04;18.40;70.50
10889;DHT22;5497;51.388;6.780;2023-04-06T11:27:31;18.50;70.90
10889;DHT22;5497;51.388;6.780;2023-04-06T11:29:58;18.60;70.70
10889;DHT22;5497;51.388;6.780;2023-04-06T11:32:25;18.50;70.20
10889;DHT22;5497;51.388;6.780;2023-04-06T11:34:53;18.40;70.50
10889;DHT22;5497;51.388;6.780;2023-04-06T11:37:20;18.30;70.60
10889;DHT22;5497;51.388;6.780;2023-04-06T11:39:49;18.10;70.90
10889;DHT22;5497;51.388;6.780;2023-04-06T11:42:21;18.10;71.50
10889;DHT22;5497;51.388;6.780;2023-04-06T11:44:49;18.00;71.70
10889;DHT22;5497;51.388;6.780;2023-04-06T11:47:16;18.00;71.80
10889;DHT22;5497;51.388;6.780;2023-04-06T11:49:48;17.90;72.30
10889;DHT22;5497;51.388;6.780;2023-04-06T11:52:18;17.80;72.50
10889;DHT22;5497;51.388;6.780;2023-04-06T11:54:45;17.70;72.70
10889;DHT22;5497;51.388;6.780;2023-04-06T11:57:12;17.60;73.10
10889;DHT22;5497;51.388;6.780;2023-04-06T11:59:39;17.60;73.40
10889;DHT22;5497;51.388;6.780;2023-04-06T12:02:06;17.60;73.80
10889;DHT22;5497;51.388;6.780;2023-04-06T12:04:33;17.70;74.00
10889;DHT22;5497;51.388;6.780;2023-04-06T12:07:01;17.80;74.10
10889;DHT22;5497;51.388;6.780;2023-04-06T12:09:30;17.90;74.50
10889;DHT22;5497;51.388;6.780;2023-04-06T12:11:57;17.90;74.20
10889;DHT22;5497;51.388;6.780;2023-04-06T12:14:33;17.80;74.30
10889;DHT22;5497;51.388;6.780;2023-04-06T12:17:00;17.70;74.10
10889;DHT22;5497;51.388;6.780;2023-04-06T12:19:26;17.70;74.10
10889;DHT22;5497;51.388;6.780;2023-04-06T12:21:54;17.60;74.40
10889;DHT22;5497;51.388;6.780;2023-04-06T12:24:22;17.70;74.90
10889;DHT22;5497;51.388;6.780;2023-04-06T12:26:50;17.70;74.60
10889;DHT22;5497;51.388;6.780;2023-04-06T12:29:18;17.70;74.60
10889;DHT22;5497;51.388;6.780;2023-04-06T12:31:46;17.70;75.10
10889;DHT22;5497;51.388;6.780;2023-04-06T12:34:13;17.80;75.10
10889;DHT22;5497;51.388;6.780;2023-04-06T12:36:40;17.80;75.10
10889;DHT22;5497;51.388;6.780;2023-04-06T12:39:07;17.80;75.20
10889;DHT22;5497;51.388;6.780;2023-04-06T12:41:34;17.90;75.50
10889;DHT22;5497;51.388;6.780;2023-04-06T12:44:02;17.90;75.40
10889;DHT22;5497;51.388;6.780;2023-04-06T12:46:29;18.00;76.40
10889;DHT22;5497;51.388;6.780;2023-04-06T12:48:57;18.10;75.90
10889;DHT22;5497;51.388;6.780;2023-04-06T12:51:24;18.00;75.80
10889;DHT22;5497;51.388;6.780;2023-04-06T12:53:51;17.90;75.70
10889;DHT22;5497;51.388;6.780;2023-04-06T12:56:18;18.00;76.20
10889;DHT22;5497;51.388;6.780;2023-04-06T12:58:49;17.90;75.80
10889;DHT22;5497;51.388;6.780;2023-04-06T13:01:18;17.70;74.90
10889;DHT22;5497;51.388;6.780;2023-04-06T13:03:46;17.50;74.70
10889;DHT22;5497;51.388;6.780;2023-04-06T13:06:13;17.30;74.90
10889;DHT22;5497;51.388;6.780;2023-04-06T13:08:40;17.20;75.00
10889;DHT22;5497;51.388;6.780;2023-04-06T13:11:07;16.90;74.70
10889;DHT22;5497;51.388;6.780;2023-04-06T13:13:34;16.70;75.30
10889;DHT22;5497;51.388;6.780;2023-04-06T13:16:02;16.50;75.70
10889;DHT22;5497;51.388;6.780;2023-04-06T13:18:32;16.40;76.30
10889;DHT22;5497;51.388;6.780;2023-04-06T13:21:00;16.60;76.60
10889;DHT22;5497;51.388;6.780;2023-04-06T13:23:27;16.60;76.60
10889;DHT22;5497;51.388;6.780;2023-04-06T13:25:57;16.60;76.60
10889;DHT22;5497;51.388;6.780;2023-04-06T13:28:25;16.50;76.80
10889;DHT22;5497;51.388;6.780;2023-04-06T13:30:52;16.50;77.20
10889;DHT22;5497;51.388;6.780;2023-04-06T13:33:19;16.40;77.90
10889;DHT22;5497;51.388;6.780;2023-04-06T13:35:47;16.50;79.20
10889;DHT22;5497;51.388;6.780;2023-04-06T13:38:14;16.50;78.20
10889;DHT22;5497;51.388;6.780;2023-04-06T13:40:44;16.40;78.50
10889;DHT22;5497;51.388;6.780;2023-04-06T13:43:11;16.50;79.10
10889;DHT22;5497;51.388;6.780;2023-04-06T13:45:37;16.30;79.40
10889;DHT22;5497;51.388;6.780;2023-04-06T13:48:05;16.20;80.20
10889;DHT22;5497;51.388;6.780;2023-04-06T13:50:32;16.20;81.20
10889;DHT22;5497;51.388;6.780;2023-04-06T13:53:00;16.10;81.90
10889;DHT22;5497;51.388;6.780;2023-04-06T13:55:27;16.00;82.40
10889;DHT22;5497;51.388;6.780;2023-04-06T13:57:55;16.00;83.00
10889;DHT22;5497;51.388;6.780;2023-04-06T14:00:27;15.80;84.00
10889;DHT22;5497;51.388;6.780;2023-04-06T14:03:18;15.60;84.60
10889;DHT22;5497;51.388;6.780;2023-04-06T14:05:45;15.30;86.20
10889;DHT22;5497;51.388;6.780;2023-04-06T14:08:17;15.20;86.90
10889;DHT22;5497;51.388;6.780;2023-04-06T14:10:46;15.40;88.50
10889;DHT22;5497;51.388;6.780;2023-04-06T14:13:18;15.00;89.70
10889;DHT22;5497;51.388;6.780;2023-04-06T14:15:46;14.30;90.40
10889;DHT22;5497;51.388;6.780;2023-04-06T14:18:16;14.70;91.50
10889;DHT22;5497;51.388;6.780;2023-04-06T14:23:56;14.80;91.70
10889;DHT22;5497;51.388;6.780;2023-04-06T14:26:54;14.90;91.70
10889;DHT22;5497;51.388;6.780;2023-04-06T14:33:10;15.20;92.10
10889;DHT22;5497;51.388;6.780;2023-04-06T14:35:38;15.20;92.20
10889;DHT22;5497;51.388;6.780;2023-04-06T14:38:05;15.30;92.30
10889;DHT22;5497;51.388;6.780;2023-04-06T14:40:35;15.30;92.50
10889;DHT22;5497;51.388;6.780;2023-04-06T14:43:02;15.30;92.20
10889;DHT22;5497;51.388;6.780;2023-04-06T14:45:32;15.10;92.10
10889;DHT22;5497;51.388;6.780;2023-04-06T14:47:59;14.90;92.10
10889;DHT22;5497;51.388;6.780;2023-04-06T14:50:26;14.60;92.40
10889;DHT22;5497;51.388;6.780;2023-04-06T14:52:53;14.40;92.70
10889;DHT22;5497;51.388;6.780;2023-04-06T14:55:21;14.10;93.10
10889;DHT22;5497;51.388;6.780;2023-04-06T14:57:49;14.00;93.40
10889;DHT22;5497;51.388;6.780;2023-04-06T15:00:16;13.70;93.70
10889;DHT22;5497;51.388;6.780;2023-04-06T15:02:43;13.50;94.10
10889;DHT22;5497;51.388;6.780;2023-04-06T15:05:10;13.40;94.40
10889;DHT22;5497;51.388;6.780;2023-04-06T15:07:37;13.30;94.80
10889;DHT22;5497;51.388;6.780;2023-04-06T15:10:04;13.20;95.30
10889;DHT22;5497;51.388;6.780;2023-04-06T15:12:31;13.10;95.60
10889;DHT22;5497;51.388;6.780;2023-04-06T15:15:00;13.80;96.30
10889;DHT22;5497;51.388;6.780;2023-04-06T15:17:27;12.90;96.50
10889;DHT22;5497;51.388;6.780;2023-04-06T15:19:54;12.70;96.90
10889;DHT22;5497;51.388;6.780;2023-04-06T15:22:20;12.70;97.50
10889;DHT22;5497;51.388;6.780;2023-04-06T15:24:48;12.60;97.80
10889;DHT22;5497;51.388;6.780;2023-04-06T15:27:15;12.40;98.30
10889;DHT22;5497;51.388;6.780;2023-04-06T15:29:44;12.30;99.10
10889;DHT22;5497;51.388;6.780;2023-04-06T15:32:12;12.20;98.90
10889;DHT22;5497;51.388;6.780;2023-04-06T15:34:38;12.00;99.40
10889;DHT22;5497;51.388;6.780;2023-04-06T15:37:05;11.90;99.90
10889;DHT22;5497;51.388;6.780;2023-04-06T15:39:32;11.80;99.90
10889;DHT22;5497;51.388;6.780;2023-04-06T15:41:59;12.50;99.90
10889;DHT22;5497;51.388;6.780;2023-04-06T15:44:26;11.70;99.90
10889;DHT22;5497;51.388;6.780;2023-04-06T15:46:52;11.60;99.90
10889;DHT22;5497;51.388;6.780;2023-04-06T15:49:22;11.60;99.90
10889;DHT22;5497;51.388;6.780;2023-04-06T15:51:50;11.50;99.90
10889;DHT22;5497;51.388;6.780;2023-04-06T15:54:17;11.40;99.90
10889;DHT22;5497;51.388;6.780;2023-04-06T15:56:45;11.40;99.90
10889;DHT22;5497;51.388;6.780;2023-04-06T15:59:12;11.60;99.90
10889;DHT22;5497;51.388;6.780;2023-04-06T16:01:39;11.10;99.90
10889;DHT22;5497;51.388;6.780;2023-04-06T16:04:07;11.00;99.90
10889;DHT22;5497;51.388;6.780;2023-04-06T16:06:37;10.80;99.90
10889;DHT22;5497;51.388;6.780;2023-04-06T16:09:03;10.90;99.90
10889;DHT22;5497;51.388;6.780;2023-04-06T16:11:30;10.50;99.90